Time;durP1;ratioP1;P1;durP2;ratioP2;P2;SDS_P1;SDS_P2;PMS_P1;PMS_P2;Temp;Humidity;BMP_temperature;BMP_pressure;BME280_temperature;BME280_humidity;BME280_pressure;Samples;Min_cycle;Max_cycle;Signal;HPM_P1;HPM_P2
2021/07/27 00:01:10;;;;;;;11.20;9.63;;;;;;;;;;5030040;28;20069;-75
2021/07/27 00:03:37;;;;;;;10.75;9.65;;;;;;;;;;5028108;28;20065;-75
2021/07/27 00:06:07;;;;;;;11.95;10.05;;;;;;;;;;5028934;28;20064;-75
2021/07/27 00:08:37;;;;;;;10.98;9.73;;;;;;;;;;5029551;28;20029;-75
2021/07/27 00:11:12;;;;;;;10.63;9.52;;;;;;;;;;5024494;28;20077;-75
2021/07/27 00:13:39;;;;;;;11.60;9.90;;;;;;;;;;5024292;28;20128;-75
2021/07/27 00:16:06;;;;;;;11.52;10.05;;;;;;;;;;5029807;28;20061;-75
2021/07/27 00:18:33;;;;;;;11.55;10.35;;;;;;;;;;5026114;28;20115;-75
2021/07/27 00:21:03;;;;;;;11.55;10.05;;;;;;;;;;5029103;28;20558;-74
2021/07/27 00:23:31;;;;;;;11.82;9.98;;;;;;;;;;5028024;28;20447;-73
2021/07/27 00:25:58;;;;;;;11.68;10.27;;;;;;;;;;5060732;28;20077;-76
2021/07/27 00:28:25;;;;;;;12.32;10.15;;;;;;;;;;5027840;28;20421;-76
2021/07/27 00:30:51;;;;;;;11.32;10.15;;;;;;;;;;5022488;28;20065;-75
2021/07/27 00:33:18;;;;;;;10.82;9.70;;;;;;;;;;5029703;28;20049;-73
2021/07/27 00:35:44;;;;;;;10.15;9.07;;;;;;;;;;5026783;28;20626;-74
2021/07/27 00:38:22;;;;;;;10.55;9.48;;;;;;;;;;5028278;28;20076;-76
2021/07/27 00:40:49;;;;;;;10.45;9.38;;;;;;;;;;5021826;28;20065;-76
2021/07/27 00:43:16;;;;;;;10.95;9.65;;;;;;;;;;5027414;28;20100;-76
2021/07/27 00:45:43;;;;;;;10.45;9.35;;;;;;;;;;5025993;28;20053;-74
2021/07/27 00:48:09;;;;;;;11.27;9.75;;;;;;;;;;5022326;28;20065;-74
2021/07/27 00:50:36;;;;;;;10.02;9.02;;;;;;;;;;5025748;28;20383;-74
2021/07/27 00:53:03;;;;;;;10.48;9.38;;;;;;;;;;5027800;28;20589;-74
2021/07/27 00:55:30;;;;;;;10.85;9.75;;;;;;;;;;5022817;28;20061;-74
2021/07/27 00:57:57;;;;;;;11.73;9.05;;;;;;;;;;5025956;28;20106;-74
2021/07/27 01:00:24;;;;;;;10.63;9.52;;;;;;;;;;5027211;28;20525;-74
2021/07/27 01:02:51;;;;;;;11.02;9.60;;;;;;;;;;5028053;28;20069;-75
2021/07/27 01:05:17;;;;;;;10.23;9.23;;;;;;;;;;5027354;28;20196;-74
2021/07/27 01:07:44;;;;;;;11.25;9.85;;;;;;;;;;5022250;28;20504;-75
2021/07/27 01:10:12;;;;;;;10.55;9.48;;;;;;;;;;5028370;28;20450;-74
2021/07/27 01:12:39;;;;;;;10.68;9.35;;;;;;;;;;5022623;28;20067;-75
2021/07/27 01:15:06;;;;;;;11.20;10.10;;;;;;;;;;5022668;28;20057;-74
2021/07/27 01:17:33;;;;;;;11.50;9.80;;;;;;;;;;5022462;28;20073;-75
2021/07/27 01:39:34;;;;;;;11.38;9.20;;;;;;;;;;5024176;28;20575;-75
2021/07/27 01:42:05;;;;;;;10.10;9.00;;;;;;;;;;5021175;28;20045;-75
2021/07/27 01:44:32;;;;;;;10.27;9.27;;;;;;;;;;5026754;28;20065;-76
2021/07/27 01:46:59;;;;;;;10.70;8.98;;;;;;;;;;5028191;28;20558;-75
2021/07/27 01:49:25;;;;;;;11.15;9.73;;;;;;;;;;5025480;28;20061;-76
2021/07/27 01:51:53;;;;;;;10.35;9.30;;;;;;;;;;5022867;28;20497;-75
2021/07/27 01:54:28;;;;;;;9.82;8.82;;;;;;;;;;5022680;28;20130;-76
2021/07/27 01:56:55;;;;;;;10.30;8.93;;;;;;;;;;5026636;28;20499;-75
2021/07/27 01:59:21;;;;;;;10.50;9.32;;;;;;;;;;5023940;28;20037;-75
2021/07/27 02:01:48;;;;;;;10.43;9.32;;;;;;;;;;5022447;28;20431;-76
2021/07/27 02:04:14;;;;;;;10.23;9.20;;;;;;;;;;5026757;28;20497;-75
2021/07/27 02:06:41;;;;;;;10.35;9.07;;;;;;;;;;5027064;28;20057;-76
2021/07/27 02:09:08;;;;;;;10.15;8.80;;;;;;;;;;5019765;28;20026;-75
2021/07/27 02:11:43;;;;;;;10.43;8.98;;;;;;;;;;5026197;28;20041;-75
2021/07/27 02:14:12;;;;;;;10.15;9.05;;;;;;;;;;5028122;28;20493;-76
2021/07/27 02:16:39;;;;;;;11.10;9.00;;;;;;;;;;5025870;28;20107;-76
2021/07/27 02:19:05;;;;;;;11.32;8.52;;;;;;;;;;5025305;28;20061;-75
2021/07/27 02:21:32;;;;;;;10.13;9.05;;;;;;;;;;5024471;28;20610;-75
2021/07/27 02:23:59;;;;;;;9.55;8.55;;;;;;;;;;5027028;28;20494;-75
2021/07/27 02:26:26;;;;;;;10.20;8.70;;;;;;;;;;5022010;28;20494;-75
2021/07/27 02:28:52;;;;;;;9.93;8.93;;;;;;;;;;5020859;28;20056;-75
2021/07/27 02:31:41;;;;;;;10.40;9.23;;;;;;;;;;5023264;28;20065;-75
2021/07/27 02:34:07;;;;;;;10.85;8.57;;;;;;;;;;5022158;28;21096;-75
2021/07/27 02:36:34;;;;;;;11.02;8.82;;;;;;;;;;5025080;28;20065;-75
2021/07/27 02:39:04;;;;;;;9.98;8.10;;;;;;;;;;5023063;28;20103;-76
2021/07/27 02:41:33;;;;;;;10.63;8.65;;;;;;;;;;5021433;28;20056;-75
2021/07/27 02:44:00;;;;;;;12.05;9.15;;;;;;;;;;5021189;28;20122;-76
2021/07/27 02:46:26;;;;;;;11.38;8.85;;;;;;;;;;5017136;28;20030;-76
2021/07/27 02:48:53;;;;;;;11.32;8.90;;;;;;;;;;5025890;28;20041;-75
2021/07/27 02:51:19;;;;;;;10.45;8.38;;;;;;;;;;5025876;28;20123;-75
2021/07/27 02:53:45;;;;;;;10.40;8.80;;;;;;;;;;5024196;28;21370;-75
2021/07/27 02:56:13;;;;;;;9.60;8.55;;;;;;;;;;5023102;28;20063;-75
2021/07/27 02:58:39;;;;;;;11.63;8.88;;;;;;;;;;5020665;28;20064;-75
2021/07/27 03:01:06;;;;;;;11.00;8.80;;;;;;;;;;5029384;28;20069;-75
2021/07/27 03:03:32;;;;;;;9.40;8.40;;;;;;;;;;5026732;28;20049;-75
2021/07/27 03:06:01;;;;;;;11.63;9.00;;;;;;;;;;5030884;28;20061;-76
2021/07/27 03:11:13;;;;;;;9.70;8.70;;;;;;;;;;5025317;28;20137;-75
2021/07/27 03:13:41;;;;;;;10.25;9.18;;;;;;;;;;5027881;28;20061;-76
2021/07/27 03:16:07;;;;;;;10.43;9.05;;;;;;;;;;5030035;28;20683;-75
2021/07/27 03:18:34;;;;;;;10.48;8.68;;;;;;;;;;5026004;28;20485;-75
2021/07/27 03:21:00;;;;;;;9.15;8.25;;;;;;;;;;5029666;28;20607;-75
2021/07/27 03:23:26;;;;;;;10.80;8.90;;;;;;;;;;5026777;28;20057;-76
2021/07/27 03:25:53;;;;;;;11.90;8.80;;;;;;;;;;5060938;28;20072;-75
2021/07/27 03:28:19;;;;;;;9.65;8.50;;;;;;;;;;5025379;28;20053;-78
2021/07/27 03:30:46;;;;;;;10.13;8.45;;;;;;;;;;5030340;28;20065;-75
2021/07/27 03:33:15;;;;;;;9.93;8.88;;;;;;;;;;5030090;28;20060;-75
2021/07/27 03:35:42;;;;;;;10.68;8.80;;;;;;;;;;5021168;28;20065;-75
2021/07/27 03:38:09;;;;;;;10.38;9.07;;;;;;;;;;5029150;28;20065;-75
2021/07/27 03:40:35;;;;;;;10.05;8.93;;;;;;;;;;5027863;28;20061;-75
2021/07/27 03:43:02;;;;;;;9.35;8.45;;;;;;;;;;5061192;28;20038;-75
2021/07/27 03:45:28;;;;;;;11.38;9.07;;;;;;;;;;5029330;28;20064;-76
2021/07/27 03:47:54;;;;;;;9.30;8.32;;;;;;;;;;5024763;28;20108;-75
2021/07/27 03:50:21;;;;;;;9.80;8.77;;;;;;;;;;5027212;28;20123;-76
2021/07/27 03:52:47;;;;;;;9.80;8.57;;;;;;;;;;5030761;28;20068;-75
2021/07/27 03:55:13;;;;;;;9.40;8.45;;;;;;;;;;5028263;28;20038;-75
2021/07/27 03:57:40;;;;;;;10.43;8.93;;;;;;;;;;5025563;28;20065;-76
2021/07/27 04:00:07;;;;;;;10.32;8.98;;;;;;;;;;5030423;28;20483;-75
2021/07/27 04:02:33;;;;;;;9.75;8.40;;;;;;;;;;5029311;28;20699;-75
2021/07/27 04:05:03;;;;;;;10.07;9.07;;;;;;;;;;5017957;28;20053;-76
2021/07/27 04:07:29;;;;;;;10.70;9.23;;;;;;;;;;5021059;28;20104;-75
2021/07/27 04:09:58;;;;;;;10.10;8.23;;;;;;;;;;5028325;28;20065;-75
2021/07/27 04:12:24;;;;;;;9.85;8.38;;;;;;;;;;5023057;28;20442;-75
2021/07/27 04:14:51;;;;;;;10.98;9.00;;;;;;;;;;5024694;28;20033;-75
2021/07/27 04:17:20;;;;;;;11.88;8.98;;;;;;;;;;5060313;28;20091;-76
2021/07/27 04:19:47;;;;;;;10.73;8.98;;;;;;;;;;5029821;28;20065;-76
2021/07/27 04:22:14;;;;;;;10.10;8.38;;;;;;;;;;5029677;28;20622;-75
2021/07/27 04:24:40;;;;;;;9.57;8.68;;;;;;;;;;5021813;28;20066;-76
2021/07/27 04:27:07;;;;;;;9.50;8.50;;;;;;;;;;5028263;28;20053;-75
2021/07/27 04:29:34;;;;;;;12.10;9.13;;;;;;;;;;5028512;28;20068;-75
2021/07/27 04:32:00;;;;;;;11.18;8.63;;;;;;;;;;5029783;28;20033;-76
2021/07/27 04:34:26;;;;;;;10.02;8.05;;;;;;;;;;5027823;28;20481;-76
2021/07/27 04:36:53;;;;;;;10.40;8.82;;;;;;;;;;5026963;28;20029;-75
2021/07/27 04:39:19;;;;;;;9.27;8.10;;;;;;;;;;5028938;28;20061;-75
2021/07/27 04:41:46;;;;;;;10.52;8.32;;;;;;;;;;5026288;28;20061;-75
2021/07/27 04:44:12;;;;;;;10.65;8.93;;;;;;;;;;5024387;28;20053;-75
2021/07/27 04:46:38;;;;;;;9.20;8.23;;;;;;;;;;5025883;28;20611;-75
2021/07/27 04:49:05;;;;;;;10.93;8.68;;;;;;;;;;5022436;28;20068;-75
2021/07/27 04:51:32;;;;;;;9.73;8.60;;;;;;;;;;5056667;28;20029;-75
2021/07/27 04:54:01;;;;;;;9.48;8.57;;;;;;;;;;5029212;28;20493;-75
2021/07/27 04:56:28;;;;;;;9.65;8.63;;;;;;;;;;5019999;28;20033;-75
2021/07/27 04:58:54;;;;;;;10.32;8.32;;;;;;;;;;5028539;28;20065;-74
2021/07/27 05:01:20;;;;;;;10.68;9.07;;;;;;;;;;5027480;28;20029;-76
2021/07/27 05:03:47;;;;;;;11.27;8.93;;;;;;;;;;5027555;28;20068;-74
2021/07/27 05:06:13;;;;;;;10.80;9.10;;;;;;;;;;5024400;28;20079;-75
2021/07/27 05:08:42;;;;;;;11.20;8.70;;;;;;;;;;5026418;28;20064;-75
2021/07/27 05:11:08;;;;;;;10.48;8.70;;;;;;;;;;5020269;28;20077;-75
2021/07/27 05:13:36;;;;;;;10.25;8.32;;;;;;;;;;5022215;28;20107;-75
2021/07/27 05:16:03;;;;;;;10.10;8.27;;;;;;;;;;5024605;28;20155;-75
2021/07/27 05:18:29;;;;;;;11.57;9.32;;;;;;;;;;5023599;28;20065;-75
2021/07/27 05:20:55;;;;;;;9.50;8.50;;;;;;;;;;5021954;28;20068;-75
2021/07/27 05:23:23;;;;;;;10.73;8.80;;;;;;;;;;5026194;28;20053;-76
2021/07/27 05:25:49;;;;;;;9.93;8.57;;;;;;;;;;5026970;28;20057;-75
2021/07/27 05:28:15;;;;;;;9.88;7.95;;;;;;;;;;5028419;28;20558;-75
2021/07/27 05:30:42;;;;;;;12.45;9.00;;;;;;;;;;5016697;28;20073;-75
2021/07/27 05:33:08;;;;;;;10.30;9.13;;;;;;;;;;5024548;28;20056;-75
2021/07/27 05:35:34;;;;;;;10.30;9.05;;;;;;;;;;5026179;28;20061;-75
2021/07/27 05:38:01;;;;;;;9.68;8.32;;;;;;;;;;5019356;28;20065;-75
2021/07/27 05:40:30;;;;;;;12.45;8.57;;;;;;;;;;5020831;28;20073;-76
2021/07/27 05:42:57;;;;;;;9.75;8.05;;;;;;;;;;5026826;28;20106;-75
2021/07/27 05:45:25;;;;;;;8.57;7.68;;;;;;;;;;5026954;28;20095;-75
2021/07/27 05:47:51;;;;;;;11.65;8.27;;;;;;;;;;5020915;28;20065;-75
2021/07/27 05:50:19;;;;;;;9.68;7.88;;;;;;;;;;5026785;28;20060;-75
2021/07/27 05:52:45;;;;;;;9.63;7.68;;;;;;;;;;5020977;28;21695;-75
2021/07/27 05:55:12;;;;;;;10.35;8.52;;;;;;;;;;5025869;28;20057;-75
2021/07/27 05:57:39;;;;;;;9.55;7.80;;;;;;;;;;5026916;28;20054;-75
2021/07/27 06:00:05;;;;;;;9.80;8.07;;;;;;;;;;5047861;28;20066;-75
2021/07/27 06:02:32;;;;;;;10.43;8.77;;;;;;;;;;5026762;28;20029;-75
2021/07/27 06:04:59;;;;;;;10.02;8.93;;;;;;;;;;5026911;28;20246;-75
2021/07/27 06:07:25;;;;;;;10.23;8.30;;;;;;;;;;5026758;28;20056;-74
2021/07/27 06:09:52;;;;;;;8.95;7.18;;;;;;;;;;5048731;28;20439;-75
2021/07/27 06:12:18;;;;;;;8.98;8.07;;;;;;;;;;5027779;28;20068;-74
2021/07/27 06:14:44;;;;;;;11.52;7.90;;;;;;;;;;5026460;28;20501;-74
2021/07/27 06:17:12;;;;;;;10.77;8.45;;;;;;;;;;5026292;28;20065;-74
2021/07/27 06:19:38;;;;;;;9.65;7.82;;;;;;;;;;5024979;28;20064;-75
2021/07/27 06:22:05;;;;;;;10.32;8.05;;;;;;;;;;5022665;28;21387;-74
2021/07/27 06:24:31;;;;;;;9.98;8.05;;;;;;;;;;5058415;28;20064;-74
2021/07/27 06:26:58;;;;;;;9.57;7.47;;;;;;;;;;5015807;28;20053;-75
2021/07/27 06:29:24;;;;;;;10.48;7.65;;;;;;;;;;5022627;28;20752;-75
2021/07/27 06:31:51;;;;;;;10.02;8.40;;;;;;;;;;5020402;28;20111;-75
2021/07/27 06:34:17;;;;;;;12.30;8.98;;;;;;;;;;5024585;28;20072;-75
2021/07/27 06:36:43;;;;;;;9.50;8.05;;;;;;;;;;5029928;28;20068;-75
2021/07/27 06:39:10;;;;;;;9.77;8.20;;;;;;;;;;5062274;28;20437;-75
2021/07/27 06:41:36;;;;;;;10.90;7.82;;;;;;;;;;5029501;28;20061;-75
2021/07/27 06:44:02;;;;;;;10.77;8.23;;;;;;;;;;5031944;28;20061;-76
2021/07/27 06:46:29;;;;;;;9.52;7.78;;;;;;;;;;5028669;28;20071;-75
2021/07/27 06:48:56;;;;;;;10.95;9.05;;;;;;;;;;5028488;28;20069;-74
2021/07/27 06:51:22;;;;;;;12.98;9.10;;;;;;;;;;5025455;28;20088;-74
2021/07/27 06:53:50;;;;;;;10.73;8.40;;;;;;;;;;5031227;28;20053;-75
2021/07/27 06:56:17;;;;;;;11.25;9.20;;;;;;;;;;5029970;28;20062;-74
2021/07/27 06:58:44;;;;;;;10.43;8.32;;;;;;;;;;5022318;28;20057;-75
2021/07/27 07:01:11;;;;;;;11.77;8.63;;;;;;;;;;5026333;28;20053;-75
2021/07/27 07:03:39;;;;;;;10.57;8.85;;;;;;;;;;5023880;28;20068;-74
2021/07/27 07:06:05;;;;;;;9.80;8.35;;;;;;;;;;5036916;28;20057;-75
2021/07/27 07:08:32;;;;;;;10.73;8.52;;;;;;;;;;5029806;28;20119;-74
2021/07/27 07:10:59;;;;;;;10.20;8.55;;;;;;;;;;5030670;28;20065;-75
2021/07/27 07:13:26;;;;;;;10.55;8.57;;;;;;;;;;5029733;28;20033;-75
2021/07/27 07:15:53;;;;;;;12.68;9.35;;;;;;;;;;5025711;28;20053;-75
2021/07/27 07:18:20;;;;;;;11.73;8.80;;;;;;;;;;5030673;28;20065;-75
2021/07/27 07:20:46;;;;;;;10.80;9.07;;;;;;;;;;5029024;28;20057;-75
2021/07/27 07:23:13;;;;;;;10.85;8.50;;;;;;;;;;5026085;28;20058;-75
2021/07/27 07:25:39;;;;;;;11.95;8.95;;;;;;;;;;5028478;28;20489;-75
2021/07/27 07:28:06;;;;;;;11.38;8.88;;;;;;;;;;5025832;28;20068;-75
2021/07/27 07:30:32;;;;;;;12.80;8.82;;;;;;;;;;5029247;28;20045;-75
2021/07/27 07:32:59;;;;;;;10.73;8.63;;;;;;;;;;5030527;28;20571;-74
2021/07/27 07:35:29;;;;;;;12.23;9.25;;;;;;;;;;5014992;28;20620;-75
2021/07/27 07:37:56;;;;;;;10.18;8.27;;;;;;;;;;5024362;28;20103;-75
2021/07/27 07:40:22;;;;;;;13.38;8.75;;;;;;;;;;5026202;28;20065;-76
2021/07/27 07:42:49;;;;;;;10.30;8.25;;;;;;;;;;5030658;28;20575;-75
2021/07/27 07:45:15;;;;;;;9.60;8.02;;;;;;;;;;5030292;28;20081;-74
2021/07/27 07:47:43;;;;;;;9.40;8.02;;;;;;;;;;5021164;28;20057;-74
2021/07/27 07:50:10;;;;;;;11.48;8.77;;;;;;;;;;5025434;28;20057;-74
2021/07/27 07:52:36;;;;;;;8.60;7.55;;;;;;;;;;5028335;28;20447;-75
2021/07/27 07:55:06;;;;;;;10.20;8.98;;;;;;;;;;5061466;28;20057;-74
2021/07/27 07:57:33;;;;;;;13.40;9.27;;;;;;;;;;5028462;28;20110;-75
2021/07/27 08:00:00;;;;;;;13.95;8.60;;;;;;;;;;5029585;28;20069;-74
2021/07/27 08:02:30;;;;;;;10.98;9.18;;;;;;;;;;5029087;28;20041;-74
2021/07/27 08:04:56;;;;;;;10.27;8.77;;;;;;;;;;5020303;28;20128;-75
2021/07/27 08:07:23;;;;;;;12.05;8.50;;;;;;;;;;5029368;28;20567;-75
2021/07/27 08:09:52;;;;;;;11.30;9.35;;;;;;;;;;5030145;28;20053;-75
2021/07/27 08:12:18;;;;;;;10.10;8.68;;;;;;;;;;5029012;28;20443;-75
2021/07/27 08:14:45;;;;;;;10.77;8.82;;;;;;;;;;5027560;28;20370;-75
2021/07/27 08:17:12;;;;;;;10.32;8.48;;;;;;;;;;5023904;28;20076;-75
2021/07/27 08:19:38;;;;;;;11.52;8.75;;;;;;;;;;5028131;28;20068;-74
2021/07/27 08:22:05;;;;;;;8.98;7.75;;;;;;;;;;5029132;28;20076;-75
2021/07/27 08:24:33;;;;;;;10.18;8.02;;;;;;;;;;5020180;28;20509;-75
2021/07/27 08:27:00;;;;;;;8.82;7.93;;;;;;;;;;5035050;28;20489;-74
2021/07/27 08:29:27;;;;;;;11.68;9.38;;;;;;;;;;5024306;28;20056;-75
2021/07/27 08:31:53;;;;;;;12.32;8.27;;;;;;;;;;5020797;28;20131;-74
2021/07/27 08:34:19;;;;;;;10.55;8.82;;;;;;;;;;5023542;28;20037;-74
2021/07/27 08:36:46;;;;;;;11.73;9.15;;;;;;;;;;5024757;28;21404;-75
2021/07/27 08:39:13;;;;;;;10.43;9.32;;;;;;;;;;5056685;28;20064;-75
2021/07/27 08:41:40;;;;;;;12.52;9.43;;;;;;;;;;5026455;28;20156;-75
2021/07/27 08:44:17;;;;;;;10.55;8.43;;;;;;;;;;5027189;28;20052;-75
2021/07/27 08:46:47;;;;;;;10.65;9.02;;;;;;;;;;5019797;28;20061;-75
2021/07/27 08:49:15;;;;;;;9.88;8.60;;;;;;;;;;5021218;28;20116;-75
2021/07/27 08:51:43;;;;;;;9.45;8.32;;;;;;;;;;5026903;28;20068;-75
2021/07/27 08:54:09;;;;;;;10.40;8.40;;;;;;;;;;5029177;28;20065;-75
2021/07/27 08:56:55;;;;;;;10.48;8.68;;;;;;;;;;5027259;28;20131;-75
2021/07/27 08:59:22;;;;;;;10.13;8.15;;;;;;;;;;5025051;28;20065;-77
2021/07/27 09:01:51;;;;;;;9.73;8.27;;;;;;;;;;5026889;28;20544;-75
2021/07/27 09:04:26;;;;;;;9.02;7.50;;;;;;;;;;5022086;28;20049;-75
2021/07/27 09:07:03;;;;;;;10.88;8.95;;;;;;;;;;5013273;28;21271;-74
2021/07/27 09:09:30;;;;;;;11.65;9.15;;;;;;;;;;5024361;28;20563;-76
2021/07/27 09:11:57;;;;;;;11.65;8.45;;;;;;;;;;5053009;28;20112;-76
2021/07/27 09:14:24;;;;;;;13.15;8.98;;;;;;;;;;5027570;28;20057;-75
2021/07/27 09:16:51;;;;;;;12.02;9.50;;;;;;;;;;5024843;28;20489;-75
2021/07/27 09:19:18;;;;;;;10.98;8.70;;;;;;;;;;5026919;28;20124;-75
2021/07/27 09:21:45;;;;;;;10.88;9.05;;;;;;;;;;5027932;28;20496;-75
2021/07/27 09:24:21;;;;;;;11.50;9.02;;;;;;;;;;5018071;28;20057;-75
2021/07/27 09:27:16;;;;;;;10.27;9.18;;;;;;;;;;5022074;28;20804;-75
2021/07/27 09:29:44;;;;;;;9.65;8.65;;;;;;;;;;5026048;28;20712;-75
2021/07/27 09:32:16;;;;;;;12.50;9.15;;;;;;;;;;5026000;28;20296;-74
2021/07/27 09:34:42;;;;;;;10.02;9.00;;;;;;;;;;5026147;28;20053;-75
2021/07/27 09:37:09;;;;;;;12.77;9.52;;;;;;;;;;5027430;28;20486;-75
2021/07/27 09:39:36;;;;;;;9.02;8.07;;;;;;;;;;5026064;28;20060;-74
2021/07/27 09:42:08;;;;;;;12.35;9.05;;;;;;;;;;5026711;28;20064;-75
2021/07/27 09:44:35;;;;;;;10.88;9.18;;;;;;;;;;5016460;28;20446;-75
2021/07/27 09:47:02;;;;;;;10.80;9.68;;;;;;;;;;5027248;28;20057;-75
2021/07/27 09:49:29;;;;;;;10.80;8.70;;;;;;;;;;5024909;28;20072;-75
2021/07/27 09:51:58;;;;;;;9.90;8.82;;;;;;;;;;5026226;28;20053;-75
2021/07/27 09:54:26;;;;;;;10.82;9.13;;;;;;;;;;5025875;28;20060;-75
2021/07/27 09:56:56;;;;;;;11.07;9.55;;;;;;;;;;5022201;28;20065;-75
2021/07/27 09:59:23;;;;;;;11.52;9.75;;;;;;;;;;5056492;28;20065;-75
2021/07/27 10:01:57;;;;;;;11.40;8.80;;;;;;;;;;5028358;28;20430;-74
2021/07/27 10:04:24;;;;;;;11.40;9.52;;;;;;;;;;5019730;28;20049;-75
2021/07/27 10:06:51;;;;;;;10.93;9.55;;;;;;;;;;5017997;28;20083;-75
2021/07/27 10:09:30;;;;;;;11.43;10.10;;;;;;;;;;5026783;28;20045;-75
2021/07/27 10:12:13;;;;;;;11.38;9.00;;;;;;;;;;5016983;28;21250;-75
2021/07/27 10:14:39;;;;;;;9.75;8.60;;;;;;;;;;5026384;28;20068;-75
2021/07/27 10:17:06;;;;;;;9.70;8.40;;;;;;;;;;5026012;28;20033;-75
2021/07/27 10:19:41;;;;;;;12.05;9.48;;;;;;;;;;5027090;28;20091;-75
2021/07/27 10:22:08;;;;;;;10.65;9.10;;;;;;;;;;5058077;28;20126;-75
2021/07/27 10:24:41;;;;;;;10.32;8.35;;;;;;;;;;5026736;28;20049;-75
2021/07/27 10:27:16;;;;;;;9.10;8.20;;;;;;;;;;5026746;28;20107;-75
2021/07/27 10:29:43;;;;;;;10.95;9.07;;;;;;;;;;5018217;28;20088;-76
2021/07/27 10:32:13;;;;;;;9.52;8.52;;;;;;;;;;5014661;28;20080;-75
2021/07/27 10:34:43;;;;;;;10.37;8.27;;;;;;;;;;5013913;28;20102;-75
2021/07/27 10:37:10;;;;;;;10.68;9.40;;;;;;;;;;5022519;28;20061;-75
2021/07/27 10:39:51;;;;;;;10.57;8.40;;;;;;;;;;5022816;28;20551;-75
2021/07/27 10:42:17;;;;;;;11.07;9.30;;;;;;;;;;5025073;28;20095;-74
2021/07/27 10:44:45;;;;;;;11.77;8.85;;;;;;;;;;5024710;28;20520;-74
2021/07/27 10:47:24;;;;;;;9.20;7.82;;;;;;;;;;5020126;28;20069;-75
2021/07/27 10:50:00;;;;;;;9.23;8.32;;;;;;;;;;5023975;28;22205;-75
2021/07/27 10:52:27;;;;;;;9.98;8.82;;;;;;;;;;5025611;28;20084;-76
2021/07/27 10:54:57;;;;;;;10.80;9.70;;;;;;;;;;5023913;28;20115;-75
2021/07/27 10:57:44;;;;;;;9.77;8.75;;;;;;;;;;5030603;28;20180;-75
2021/07/27 11:00:11;;;;;;;9.15;8.25;;;;;;;;;;5037094;28;20447;-75
2021/07/27 11:02:38;;;;;;;9.38;7.88;;;;;;;;;;5025218;28;20065;-75
2021/07/27 11:05:05;;;;;;;10.05;9.05;;;;;;;;;;5022631;28;20071;-75
2021/07/27 11:07:34;;;;;;;10.55;9.25;;;;;;;;;;5024814;28;20068;-75
2021/07/27 11:10:02;;;;;;;10.23;9.10;;;;;;;;;;5025470;28;20069;-75
2021/07/27 11:12:32;;;;;;;10.88;9.77;;;;;;;;;;5021696;28;20507;-75
2021/07/27 11:15:05;;;;;;;12.10;10.05;;;;;;;;;;5025649;28;20634;-75
2021/07/27 11:17:31;;;;;;;10.65;9.55;;;;;;;;;;5015408;28;20073;-75
2021/07/27 11:20:02;;;;;;;12.88;9.52;;;;;;;;;;5035711;28;20060;-75
2021/07/27 11:22:28;;;;;;;12.93;10.13;;;;;;;;;;5033633;28;20069;-76
2021/07/27 11:24:55;;;;;;;10.32;9.23;;;;;;;;;;5029509;28;20588;-75
2021/07/27 11:27:28;;;;;;;11.02;9.57;;;;;;;;;;5029780;28;20130;-77
2021/07/27 11:29:58;;;;;;;11.45;9.07;;;;;;;;;;5023359;28;20069;-75
2021/07/27 11:32:26;;;;;;;10.70;9.45;;;;;;;;;;5024413;28;20034;-75
2021/07/27 11:34:59;;;;;;;10.57;9.25;;;;;;;;;;5059742;28;20699;-75
2021/07/27 11:37:28;;;;;;;10.88;9.77;;;;;;;;;;5019229;28;20118;-75
2021/07/27 11:39:56;;;;;;;10.63;9.20;;;;;;;;;;5029401;28;20056;-75
2021/07/27 11:46:16;;;;;;;11.98;10.68;;;;;;;;;;5024632;28;20036;-77
2021/07/27 11:49:21;;;;;;;11.40;10.23;;;;;;;;;;4985293;28;20030;-76
2021/07/27 11:52:01;;;;;;;10.30;9.25;;;;;;;;;;4994117;28;20268;-75
2021/07/27 11:54:36;;;;;;;10.80;9.43;;;;;;;;;;5005670;28;20053;-76
2021/07/27 11:57:07;;;;;;;9.57;8.60;;;;;;;;;;5011716;28;20037;-76
2021/07/27 11:59:58;;;;;;;10.32;9.23;;;;;;;;;;5004919;28;20101;-78
2021/07/27 12:02:28;;;;;;;10.27;9.18;;;;;;;;;;5027003;28;20041;-77
2021/07/27 12:05:17;;;;;;;11.05;9.48;;;;;;;;;;5034640;28;20036;-77
2021/07/27 12:07:49;;;;;;;14.27;10.10;;;;;;;;;;5034541;28;20060;-77
2021/07/27 12:10:19;;;;;;;10.35;9.25;;;;;;;;;;5041136;28;20101;-76
2021/07/27 12:13:09;;;;;;;10.55;9.30;;;;;;;;;;5017486;28;20043;-76
2021/07/27 12:15:47;;;;;;;11.80;9.32;;;;;;;;;;4999214;28;20067;-77
2021/07/27 12:18:14;;;;;;;12.38;10.25;;;;;;;;;;5050954;28;20037;-75
2021/07/27 12:20:46;;;;;;;11.82;9.93;;;;;;;;;;5026045;28;20052;-75
2021/07/27 12:23:18;;;;;;;11.80;9.85;;;;;;;;;;5005720;28;20041;-76
2021/07/27 12:25:56;;;;;;;10.57;9.57;;;;;;;;;;5045227;28;20042;-75
2021/07/27 12:28:35;;;;;;;11.35;9.52;;;;;;;;;;5052226;28;20531;-76
2021/07/27 12:31:01;;;;;;;12.40;9.95;;;;;;;;;;5045833;28;20030;-75
2021/07/27 12:33:33;;;;;;;13.02;9.90;;;;;;;;;;5019502;28;20068;-76
2021/07/27 12:36:02;;;;;;;13.55;10.25;;;;;;;;;;5058258;28;20037;-75
2021/07/27 12:38:32;;;;;;;12.48;10.45;;;;;;;;;;5022932;28;20087;-76
2021/07/27 12:40:59;;;;;;;12.77;10.63;;;;;;;;;;5019909;28;20620;-75
2021/07/27 12:43:25;;;;;;;11.82;10.13;;;;;;;;;;5028001;28;20155;-76
2021/07/27 12:45:52;;;;;;;13.38;10.23;;;;;;;;;;5028819;28;20482;-75
2021/07/27 12:48:18;;;;;;;11.25;10.05;;;;;;;;;;5027736;28;20049;-75
2021/07/27 12:50:44;;;;;;;11.95;10.45;;;;;;;;;;5025422;28;20069;-75
2021/07/27 12:53:14;;;;;;;12.93;9.57;;;;;;;;;;5022920;28;20053;-75
2021/07/27 12:55:40;;;;;;;11.55;9.15;;;;;;;;;;5025828;28;20088;-76
2021/07/27 12:58:07;;;;;;;10.00;8.52;;;;;;;;;;5028995;28;20065;-75
2021/07/27 13:00:33;;;;;;;9.85;8.05;;;;;;;;;;5027287;28;20057;-75
2021/07/27 13:03:00;;;;;;;9.50;8.07;;;;;;;;;;5027973;28;20069;-75
2021/07/27 13:05:26;;;;;;;9.60;7.68;;;;;;;;;;5027269;28;20061;-76
2021/07/27 13:07:54;;;;;;;8.50;7.38;;;;;;;;;;5026137;28;20061;-75
2021/07/27 13:10:21;;;;;;;8.77;7.13;;;;;;;;;;5024031;28;20093;-76
2021/07/27 13:12:47;;;;;;;8.57;6.90;;;;;;;;;;5017150;28;20299;-76
2021/07/27 13:15:14;;;;;;;9.00;7.65;;;;;;;;;;5019182;28;20100;-75
2021/07/27 13:17:40;;;;;;;8.00;7.15;;;;;;;;;;5026657;28;20057;-75
2021/07/27 13:20:07;;;;;;;8.02;7.10;;;;;;;;;;5028121;28;20056;-75
2021/07/27 13:22:33;;;;;;;8.70;6.97;;;;;;;;;;5027868;28;20076;-76
2021/07/27 13:24:59;;;;;;;8.48;6.43;;;;;;;;;;5028233;28;20057;-75
2021/07/27 13:27:26;;;;;;;8.73;7.13;;;;;;;;;;5026928;28;20126;-75
2021/07/27 13:29:52;;;;;;;9.05;6.85;;;;;;;;;;5014030;28;20459;-76
2021/07/27 13:32:19;;;;;;;8.85;6.93;;;;;;;;;;5025203;28;20564;-76
2021/07/27 13:34:45;;;;;;;8.52;6.82;;;;;;;;;;5026840;28;20025;-76
2021/07/27 13:37:11;;;;;;;7.75;5.97;;;;;;;;;;5027746;28;20072;-76
2021/07/27 13:39:38;;;;;;;9.02;6.32;;;;;;;;;;5027638;28;20096;-76
2021/07/27 13:42:04;;;;;;;8.40;6.15;;;;;;;;;;5025012;28;20528;-75
2021/07/27 13:44:31;;;;;;;8.07;5.72;;;;;;;;;;5021309;28;20069;-76
2021/07/27 13:46:57;;;;;;;8.30;5.85;;;;;;;;;;5017662;28;20070;-75
2021/07/27 13:49:23;;;;;;;8.57;6.07;;;;;;;;;;5026333;28;20119;-77
2021/07/27 13:51:50;;;;;;;8.73;5.68;;;;;;;;;;5027055;28;20064;-76
2021/07/27 13:54:16;;;;;;;8.43;5.70;;;;;;;;;;5028523;28;20053;-75
2021/07/27 13:56:43;;;;;;;7.28;5.80;;;;;;;;;;5026866;28;20263;-76
2021/07/27 13:59:09;;;;;;;8.00;5.90;;;;;;;;;;5023418;28;20566;-75
2021/07/27 14:01:36;;;;;;;8.10;5.75;;;;;;;;;;5026700;28;20076;-76
2021/07/27 14:04:02;;;;;;;8.07;5.60;;;;;;;;;;5028066;28;20045;-75
2021/07/27 14:06:29;;;;;;;7.25;5.50;;;;;;;;;;5022354;28;20065;-77
2021/07/27 14:08:55;;;;;;;7.78;5.65;;;;;;;;;;5027656;28;20060;-75
2021/07/27 14:11:21;;;;;;;7.28;5.18;;;;;;;;;;5025955;28;20501;-75
2021/07/27 14:13:48;;;;;;;7.60;4.90;;;;;;;;;;5024366;28;20064;-75
2021/07/27 14:16:14;;;;;;;6.75;4.80;;;;;;;;;;5022478;28;20475;-74
2021/07/27 14:18:41;;;;;;;7.68;5.10;;;;;;;;;;5026804;28;20519;-75
2021/07/27 14:21:07;;;;;;;6.70;4.85;;;;;;;;;;5027235;28;20065;-75
2021/07/27 14:23:33;;;;;;;5.82;4.90;;;;;;;;;;5026555;28;20057;-76
2021/07/27 14:26:00;;;;;;;6.93;4.75;;;;;;;;;;5024906;28;20061;-75
2021/07/27 14:28:26;;;;;;;6.03;4.65;;;;;;;;;;5057109;28;20065;-75
2021/07/27 14:30:53;;;;;;;6.18;4.85;;;;;;;;;;5027946;28;20115;-75
2021/07/27 14:33:19;;;;;;;5.43;4.60;;;;;;;;;;5018878;28;20076;-75
2021/07/27 14:35:47;;;;;;;6.93;5.35;;;;;;;;;;5021172;28;20057;-75
2021/07/27 14:38:15;;;;;;;5.45;4.30;;;;;;;;;;5025910;28;20603;-75
2021/07/27 14:40:41;;;;;;;6.85;4.95;;;;;;;;;;5058064;28;20064;-75
2021/07/27 14:43:08;;;;;;;6.97;5.10;;;;;;;;;;5026182;28;20150;-75
2021/07/27 14:45:34;;;;;;;6.80;4.90;;;;;;;;;;5025927;28;20072;-75
2021/07/27 14:48:01;;;;;;;6.25;4.18;;;;;;;;;;5054767;28;20065;-75
2021/07/27 14:50:27;;;;;;;6.75;4.63;;;;;;;;;;5023704;28;20555;-75
2021/07/27 14:52:53;;;;;;;6.22;4.40;;;;;;;;;;5027030;28;20550;-75
2021/07/27 14:55:20;;;;;;;7.53;4.00;;;;;;;;;;5027779;28;20061;-75
2021/07/27 14:57:47;;;;;;;5.18;4.40;;;;;;;;;;5030419;28;20072;-75
2021/07/27 15:00:13;;;;;;;5.68;4.10;;;;;;;;;;5025789;28;20056;-75
2021/07/27 15:02:40;;;;;;;6.32;3.90;;;;;;;;;;5025617;28;20069;-75
2021/07/27 15:05:06;;;;;;;7.05;4.28;;;;;;;;;;5030332;28;20073;-75